Terminal Aerodrome Forecast
Issued by NWS Louisville, KY

Home | Current Version | Previous Version | Text Only | Print | Product List | Glossary On
Versions: 1 2 3 4 5 6 7 8 9 10 11 12 13
365
FTUS43 KLMK 221120
TAFSDF
TAF
KSDF 221120Z 2212/2318 35010KT P6SM FEW250
     FM221800 36007KT P6SM SCT028
     FM230100 00000KT P6SM SKC=

USA.gov is the U.S. government's official web portal to all federal, state and local government web resources and services.